createdAt,value
2022-12-14T00:01:53.134Z,98411.92
2022-12-14T00:04:24.867Z,98415.84
2022-12-14T00:06:56.692Z,98416.59
2022-12-14T00:09:28.591Z,98413.92
2022-12-14T00:12:00.365Z,98409.87
2022-12-14T00:14:32.074Z,98410.70
2022-12-14T00:17:03.834Z,98410.77
2022-12-14T00:19:35.785Z,98411.86
2022-12-14T00:22:07.533Z,98409.45
2022-12-14T00:24:39.310Z,98399.39
2022-12-14T00:27:11.307Z,98403.23
2022-12-14T00:29:42.973Z,98397.18
2022-12-14T00:32:14.573Z,98398.77
2022-12-14T00:34:46.262Z,98395.90
2022-12-14T00:37:18.047Z,98397.13
2022-12-14T00:39:49.891Z,98404.16
2022-12-14T00:42:21.725Z,98401.86
2022-12-14T00:44:53.364Z,98403.45
2022-12-14T00:47:25.024Z,98396.31
2022-12-14T00:49:56.747Z,98397.77
2022-12-14T00:52:28.790Z,98396.73
2022-12-14T00:55:00.485Z,98396.92
2022-12-14T00:57:32.882Z,98392.42
2022-12-14T01:00:05.351Z,98391.85
2022-12-14T01:02:37.072Z,98392.45
2022-12-14T01:05:10.499Z,98393.42
2022-12-14T01:07:40.535Z,98393.36
2022-12-14T01:10:12.941Z,98390.56
2022-12-14T01:12:44.564Z,98388.25
2022-12-14T01:15:16.338Z,98391.19
2022-12-14T01:17:48.032Z,98393.30
2022-12-14T01:20:20.141Z,98393.54
2022-12-14T01:22:56.846Z,98391.04
2022-12-14T01:25:28.935Z,98384.41
2022-12-14T01:28:00.672Z,98386.58
2022-12-14T01:30:32.328Z,98375.02
2022-12-14T01:33:04.143Z,98377.83
2022-12-14T01:35:37.643Z,98369.23
2022-12-14T01:38:09.366Z,98368.16
2022-12-14T01:40:41.107Z,98356.89
2022-12-14T01:43:15.671Z,98358.27
2022-12-14T01:45:47.356Z,98353.04
2022-12-14T01:48:19.889Z,98352.27
2022-12-14T01:50:51.839Z,98353.52
2022-12-14T01:53:25.155Z,98353.41
2022-12-14T01:55:59.373Z,98349.90
2022-12-14T01:58:31.064Z,98349.46
2022-12-14T02:01:04.724Z,98351.45
2022-12-14T02:03:39.531Z,98347.86
2022-12-14T02:06:18.266Z,98353.50
2022-12-14T02:08:53.542Z,98346.35
2022-12-14T02:11:33.394Z,98341.33
2022-12-14T02:14:05.361Z,98339.94
2022-12-14T02:16:38.358Z,98338.84
2022-12-14T02:19:12.262Z,98334.80
2022-12-14T02:22:09.046Z,98332.59
2022-12-14T02:25:14.613Z,98330.08
2022-12-14T02:27:59.661Z,98324.54
2022-12-14T02:30:36.911Z,98329.58
2022-12-14T02:33:27.508Z,98326.91
2022-12-14T02:36:06.614Z,98322.77
2022-12-14T02:38:52.809Z,98326.81
2022-12-14T02:41:28.726Z,98318.80
2022-12-14T02:44:07.534Z,98321.45
2022-12-14T02:46:50.348Z,98321.54
2022-12-14T02:49:37.206Z,98313.98
2022-12-14T02:52:15.535Z,98310.39
2022-12-14T02:54:54.300Z,98310.20
2022-12-14T02:57:30.895Z,98312.73
2022-12-14T03:00:10.084Z,98311.39
2022-12-14T03:02:44.589Z,98306.56
2022-12-14T03:05:16.764Z,98306.45
2022-12-14T03:07:52.191Z,98309.91
2022-12-14T03:10:35.440Z,98304.22
2022-12-14T03:13:16.595Z,98304.57
2022-12-14T03:16:10.232Z,98302.28
2022-12-14T03:18:46.949Z,98307.17
2022-12-14T03:21:23.021Z,98303.67
2022-12-14T03:23:56.402Z,98305.73
2022-12-14T03:26:29.073Z,98304.55
2022-12-14T03:29:08.887Z,98308.73
2022-12-14T03:31:49.072Z,98306.95
2022-12-14T03:34:27.081Z,98304.21
2022-12-14T03:37:07.308Z,98300.17
2022-12-14T03:39:41.722Z,98295.52
2022-12-14T03:42:21.843Z,98296.42
2022-12-14T03:45:02.072Z,98296.16
2022-12-14T03:48:02.816Z,98300.98
2022-12-14T03:50:43.125Z,98299.25
2022-12-14T03:53:21.205Z,98300.71
2022-12-14T03:56:03.331Z,98299.59
2022-12-14T03:58:42.472Z,98303.80
2022-12-14T04:01:19.474Z,98302.69
2022-12-14T04:03:58.010Z,98299.53
2022-12-14T04:06:39.700Z,98295.31
2022-12-14T04:09:37.777Z,98294.63
2022-12-14T04:12:33.425Z,98286.94
2022-12-14T04:15:27.997Z,98288.27
2022-12-14T04:18:40.594Z,98286.63
2022-12-14T04:21:17.998Z,98286.08
2022-12-14T04:24:14.408Z,98285.69
2022-12-14T04:26:52.622Z,98282.52
2022-12-14T04:29:47.460Z,98278.17
2022-12-14T04:32:24.885Z,98280.85
2022-12-14T04:35:02.118Z,98274.23
2022-12-14T04:37:37.012Z,98273.09
2022-12-14T04:40:12.825Z,98275.25
2022-12-14T04:42:49.735Z,98271.05
2022-12-14T04:45:24.744Z,98269.71
2022-12-14T04:48:09.669Z,98268.91
2022-12-14T04:50:46.868Z,98263.66
2022-12-14T04:53:26.384Z,98262.89
2022-12-14T04:56:06.438Z,98255.19
2022-12-14T04:58:40.769Z,98246.64
2022-12-14T05:01:36.271Z,98243.98
2022-12-14T05:04:16.538Z,98240.39
2022-12-14T05:06:57.517Z,98236.30
2022-12-14T05:09:32.892Z,98228.96
2022-12-14T05:12:09.921Z,98224.61
2022-12-14T05:14:48.727Z,98213.80
2022-12-14T05:17:20.805Z,98216.70
2022-12-14T05:19:54.572Z,98211.83
2022-12-14T05:22:26.317Z,98207.38
2022-12-14T05:24:57.911Z,98206.15
2022-12-14T05:27:29.571Z,98202.98
2022-12-14T05:30:01.174Z,98203.11
2022-12-14T05:32:33.031Z,98203.32
2022-12-14T05:35:05.677Z,98203.14
2022-12-14T05:37:37.459Z,98208.88
2022-12-14T05:40:11.819Z,98211.40
2022-12-14T05:42:46.108Z,98211.98
2022-12-14T05:45:21.031Z,98211.67
2022-12-14T05:47:52.732Z,98209.77
2022-12-14T05:50:24.382Z,98209.50
2022-12-14T05:52:56.679Z,98207.60
2022-12-14T05:55:28.302Z,98211.64
2022-12-14T05:58:00.020Z,98205.34
2022-12-14T06:00:31.897Z,98210.35
2022-12-14T06:03:03.664Z,98211.19
2022-12-14T06:05:36.465Z,98209.75
2022-12-14T06:08:08.545Z,98204.91
2022-12-14T06:10:40.258Z,98201.02
2022-12-14T06:13:12.133Z,98199.54
2022-12-14T06:15:43.940Z,98199.48
2022-12-14T06:18:15.551Z,98199.81
2022-12-14T06:20:47.345Z,98198.23
2022-12-14T06:23:18.903Z,98200.74
2022-12-14T06:25:56.978Z,98195.73
2022-12-14T06:28:28.621Z,98187.55
2022-12-14T06:31:01.456Z,98193.00
2022-12-14T06:33:34.954Z,98189.56
2022-12-14T06:36:07.246Z,98185.63
2022-12-14T06:38:39.081Z,98181.00
2022-12-14T06:41:12.049Z,98179.05
2022-12-14T06:43:43.899Z,98179.08
2022-12-14T06:46:17.610Z,98185.29
2022-12-14T06:48:52.224Z,98189.60
2022-12-14T06:51:26.016Z,98187.92
2022-12-14T06:53:59.687Z,98193.99
2022-12-14T06:56:31.508Z,98192.92
2022-12-14T06:59:03.250Z,98180.54
2022-12-14T07:01:35.688Z,98177.88
2022-12-14T07:04:08.959Z,98177.77
2022-12-14T07:06:40.483Z,98171.21
2022-12-14T07:09:16.077Z,98175.01
2022-12-14T07:11:52.249Z,98172.52
2022-12-14T07:14:23.894Z,98174.45
2022-12-14T07:16:55.511Z,98169.96
2022-12-14T07:19:27.219Z,98166.26
2022-12-14T07:22:05.322Z,98158.80
2022-12-14T07:24:37.449Z,98153.77
2022-12-14T07:27:09.427Z,98153.20
2022-12-14T07:29:41.209Z,98148.91
2022-12-14T07:32:12.850Z,98153.09
2022-12-14T07:34:44.566Z,98154.92
2022-12-14T07:37:17.224Z,98149.67
2022-12-14T07:39:48.921Z,98148.05
2022-12-14T07:42:20.577Z,98145.10
2022-12-14T07:44:52.168Z,98147.73
2022-12-14T07:47:24.051Z,98152.01
2022-12-14T07:49:55.786Z,98150.90
2022-12-14T07:52:30.547Z,98152.65
2022-12-14T07:55:07.459Z,98159.55
2022-12-14T07:57:39.042Z,98156.52
2022-12-14T08:00:13.089Z,98148.27
2022-12-14T08:02:45.133Z,98150.61
2022-12-14T08:05:17.088Z,98146.06
2022-12-14T08:07:48.752Z,98144.61
2022-12-14T08:10:20.586Z,98135.70
2022-12-14T08:12:53.626Z,98135.61
2022-12-14T08:15:25.495Z,98125.41
2022-12-14T08:17:57.215Z,98124.96
2022-12-14T08:20:28.891Z,98126.71
2022-12-14T08:23:00.618Z,98123.94
2022-12-14T08:25:32.269Z,98125.81
2022-12-14T08:28:04.000Z,98126.86
2022-12-14T08:30:38.822Z,98119.30
2022-12-14T08:33:10.424Z,98124.84
2022-12-14T08:35:42.285Z,98126.77
2022-12-14T08:38:14.078Z,98133.30
2022-12-14T08:40:45.838Z,98138.43
2022-12-14T08:43:21.745Z,98129.82
2022-12-14T08:45:58.665Z,98127.61
2022-12-14T08:48:30.581Z,98121.86
2022-12-14T08:51:05.424Z,98121.19
2022-12-14T08:53:37.837Z,98119.58
2022-12-14T08:56:12.410Z,98122.52
2022-12-14T08:58:44.886Z,98125.01
2022-12-14T09:01:20.100Z,98120.58
2022-12-14T09:03:52.140Z,98117.39
2022-12-14T09:06:28.282Z,98113.39
2022-12-14T09:09:00.648Z,98110.02
2022-12-14T09:11:32.854Z,98102.67
2022-12-14T09:14:08.558Z,98101.31
2022-12-14T09:16:40.577Z,98108.47
2022-12-14T09:19:12.456Z,98102.73
2022-12-14T09:21:44.156Z,98099.52
2022-12-14T09:24:16.053Z,98095.93
2022-12-14T09:26:47.752Z,98101.79
2022-12-14T09:29:20.560Z,98109.06
2022-12-14T09:31:52.201Z,98099.50
2022-12-14T09:34:26.020Z,98086.98
2022-12-14T09:36:57.832Z,98082.45
2022-12-14T09:39:29.644Z,98081.31
2022-12-14T09:42:13.173Z,98078.69
2022-12-14T09:44:58.690Z,98075.27
2022-12-14T09:47:36.719Z,98074.44
2022-12-14T09:50:13.638Z,98070.30
2022-12-14T09:52:49.911Z,98064.88
2022-12-14T09:55:26.214Z,98060.46
2022-12-14T09:58:00.916Z,98059.95
2022-12-14T10:00:40.778Z,98056.10
2022-12-14T10:03:39.096Z,98052.59
2022-12-14T10:06:35.073Z,98050.29
2022-12-14T10:09:16.534Z,98046.80
2022-12-14T10:12:15.470Z,98043.28
2022-12-14T10:14:57.923Z,98047.93
2022-12-14T10:17:41.996Z,98050.64
2022-12-14T10:20:23.253Z,98053.61
2022-12-14T10:22:55.400Z,98047.58
2022-12-14T10:25:30.005Z,98038.72
2022-12-14T10:28:11.536Z,98037.18
2022-12-14T10:30:47.862Z,98038.77
2022-12-14T10:33:25.958Z,98030.23
2022-12-14T10:36:06.087Z,98027.91
2022-12-14T10:38:45.261Z,98025.25
2022-12-14T10:41:31.714Z,98019.08
2022-12-14T10:44:16.494Z,98008.30
2022-12-14T10:46:56.303Z,98009.15
2022-12-14T10:49:34.965Z,98002.73
2022-12-14T10:52:12.360Z,97998.69
2022-12-14T10:54:48.674Z,97993.15
2022-12-14T10:57:24.737Z,97989.13
2022-12-14T11:00:08.576Z,97982.70
2022-12-14T11:02:44.918Z,97976.73
2022-12-14T11:05:36.587Z,97971.79
2022-12-14T11:08:11.629Z,97961.83
2022-12-14T11:10:43.306Z,97963.58
2022-12-14T11:13:21.801Z,97955.10
2022-12-14T11:15:57.459Z,97961.02
2022-12-14T11:18:32.850Z,97953.82
2022-12-14T11:21:07.192Z,97952.05
2022-12-14T11:23:42.246Z,97950.16
2022-12-14T11:26:25.923Z,97944.03
2022-12-14T11:28:58.005Z,97946.48
2022-12-14T11:31:35.692Z,97938.44
2022-12-14T11:34:22.273Z,97932.30
2022-12-14T11:36:55.011Z,97925.34
2022-12-14T11:39:27.586Z,97921.04
2022-12-14T11:42:05.516Z,97924.39
2022-12-14T11:44:39.883Z,97926.66
2022-12-14T11:47:19.237Z,97917.08
2022-12-14T11:49:55.512Z,97912.11
2022-12-14T11:52:48.961Z,97912.83
2022-12-14T11:55:26.985Z,97905.54
2022-12-14T11:58:01.373Z,97902.67
2022-12-14T12:00:47.192Z,97908.10
2022-12-14T12:03:27.219Z,97902.06
2022-12-14T12:06:05.611Z,97891.02
2022-12-14T12:08:39.558Z,97883.81
2022-12-14T12:11:20.431Z,97877.10
2022-12-14T12:13:58.083Z,97858.98
2022-12-14T12:16:33.182Z,97858.52
2022-12-14T12:19:13.016Z,97850.79
2022-12-14T12:21:47.429Z,97843.42
2022-12-14T12:24:24.209Z,97830.25
2022-12-14T12:26:58.406Z,97824.67
2022-12-14T12:29:35.052Z,97815.30
2022-12-14T12:32:14.403Z,97809.46
2022-12-14T12:34:54.685Z,97800.05
2022-12-14T12:37:34.937Z,97796.52
2022-12-14T12:40:18.987Z,97791.09
2022-12-14T12:42:54.824Z,97786.43
2022-12-14T12:45:37.885Z,97782.83
2022-12-14T12:48:16.166Z,97778.92
2022-12-14T12:50:52.350Z,97785.55
2022-12-14T12:53:31.440Z,97773.45
2022-12-14T12:56:09.735Z,97761.14
2022-12-14T12:58:50.678Z,97752.23
2022-12-14T13:01:29.430Z,97745.23
2022-12-14T13:04:04.787Z,97743.91
2022-12-14T13:06:46.370Z,97738.65
2022-12-14T13:09:28.916Z,97740.70
2022-12-14T13:12:02.555Z,97739.29
2022-12-14T13:14:42.562Z,97735.73
2022-12-14T13:17:44.828Z,97727.50
2022-12-14T13:20:23.733Z,97725.21
2022-12-14T13:23:15.207Z,97728.17
2022-12-14T13:26:07.776Z,97727.36
2022-12-14T13:28:55.368Z,97722.35
2022-12-14T13:31:38.991Z,97720.41
2022-12-14T13:34:18.226Z,97716.01
2022-12-14T13:37:32.553Z,97714.20
2022-12-14T13:40:42.885Z,97705.62
2022-12-14T13:43:56.628Z,97697.91
2022-12-14T13:46:30.587Z,97685.23
2022-12-14T13:49:06.566Z,97667.61
2022-12-14T13:51:41.439Z,97666.23
2022-12-14T13:54:23.483Z,97661.96
2022-12-14T13:57:13.481Z,97661.81
2022-12-14T13:59:47.446Z,97659.59
2022-12-14T14:02:42.536Z,97655.77
2022-12-14T14:05:49.438Z,97652.29
2022-12-14T14:08:41.488Z,97647.85
2022-12-14T14:12:08.375Z,97636.89
2022-12-14T14:14:50.742Z,97637.73
2022-12-14T14:17:26.225Z,97636.98
2022-12-14T14:19:59.060Z,97636.27
2022-12-14T14:22:32.839Z,97632.42
2022-12-14T14:25:10.300Z,97626.39
2022-12-14T14:28:02.636Z,97613.65
2022-12-14T14:30:43.127Z,97610.30
2022-12-14T14:33:45.440Z,97599.33
2022-12-14T14:36:23.435Z,97596.91
2022-12-14T14:38:56.654Z,97598.14
2022-12-14T14:41:33.880Z,97607.49
2022-12-14T14:44:16.764Z,97621.51
2022-12-14T14:46:50.790Z,97625.51
2022-12-14T14:49:31.454Z,97629.10
2022-12-14T14:52:34.407Z,97627.11
2022-12-14T14:56:01.191Z,97624.80
2022-12-14T14:58:36.484Z,97605.23
2022-12-14T15:01:20.472Z,97589.89
2022-12-14T15:03:57.126Z,97574.22
2022-12-14T15:06:32.628Z,97582.08
2022-12-14T15:09:13.843Z,97591.30
2022-12-14T15:11:52.225Z,97586.44
2022-12-14T15:14:46.655Z,97577.14
2022-12-14T15:17:25.868Z,97570.11
2022-12-14T15:19:59.104Z,97568.00
2022-12-14T15:22:38.591Z,97561.06
2022-12-14T15:25:17.134Z,97556.08
2022-12-14T15:27:50.315Z,97557.88
2022-12-14T15:30:32.804Z,97550.23
2022-12-14T15:33:08.781Z,97545.78
2022-12-14T15:35:43.644Z,97551.33
2022-12-14T15:38:25.514Z,97543.98
2022-12-14T15:41:00.395Z,97544.28
2022-12-14T15:43:33.836Z,97542.73
2022-12-14T15:46:25.720Z,97539.73
2022-12-14T15:49:03.626Z,97538.10
2022-12-14T15:51:38.357Z,97537.67
2022-12-14T15:54:16.856Z,97539.79
2022-12-14T15:56:51.547Z,97526.05
2022-12-14T15:59:25.441Z,97526.20
2022-12-14T16:02:06.688Z,97524.72
2022-12-14T16:04:40.709Z,97531.86
2022-12-14T16:07:19.273Z,97529.77
2022-12-14T16:09:53.321Z,97526.54
2022-12-14T16:12:29.339Z,97524.84
2022-12-14T16:15:04.298Z,97516.61
2022-12-14T16:17:39.047Z,97519.32
2022-12-14T16:20:23.613Z,97514.34
2022-12-14T16:23:06.092Z,97502.17
2022-12-14T16:25:50.653Z,97508.52
2022-12-14T16:28:27.330Z,97508.70
2022-12-14T16:31:04.042Z,97509.29
2022-12-14T16:33:37.515Z,97502.48
2022-12-14T16:36:14.825Z,97505.35
2022-12-14T16:39:00.543Z,97497.39
2022-12-14T16:41:39.527Z,97492.52
2022-12-14T16:44:22.285Z,97501.63
2022-12-14T16:47:29.448Z,97496.00
2022-12-14T16:50:01.868Z,97490.60
2022-12-14T16:52:39.582Z,97488.52
2022-12-14T16:55:17.263Z,97486.29
2022-12-14T16:57:58.684Z,97486.84
2022-12-14T17:00:33.731Z,97478.44
2022-12-14T17:03:18.686Z,97480.64
2022-12-14T17:05:58.224Z,97488.15
2022-12-14T17:08:31.013Z,97490.99
2022-12-14T17:11:03.478Z,97485.92
2022-12-14T17:13:35.208Z,97483.20
2022-12-14T17:16:19.808Z,97480.72
2022-12-14T17:18:51.719Z,97472.55
2022-12-14T17:21:28.364Z,97468.48
2022-12-14T17:24:00.721Z,97464.54
2022-12-14T17:26:33.893Z,97465.09
2022-12-14T17:29:08.589Z,97465.70
2022-12-14T17:31:44.656Z,97464.64
2022-12-14T17:34:22.568Z,97464.65
2022-12-14T17:36:54.337Z,97462.70
2022-12-14T17:39:29.165Z,97463.92
2022-12-14T17:42:01.204Z,97456.86
2022-12-14T17:44:34.659Z,97455.70
2022-12-14T17:47:04.963Z,97459.66
2022-12-14T17:49:36.759Z,97462.23
2022-12-14T17:52:16.740Z,97456.98
2022-12-14T17:54:48.810Z,97453.71
2022-12-14T17:57:22.413Z,97455.71
2022-12-14T18:00:14.346Z,97452.84
2022-12-14T18:02:46.693Z,97451.40
2022-12-14T18:05:21.356Z,97444.08
2022-12-14T18:07:53.064Z,97434.17
2022-12-14T18:10:24.927Z,97428.99
2022-12-14T18:12:56.636Z,97429.92
2022-12-14T18:15:31.860Z,97426.48
2022-12-14T18:18:03.619Z,97422.44
2022-12-14T18:20:36.508Z,97419.55
2022-12-14T18:23:08.677Z,97410.07
2022-12-14T18:25:44.811Z,97414.23
2022-12-14T18:28:20.043Z,97413.08
2022-12-14T18:30:55.797Z,97413.89
2022-12-14T18:33:29.736Z,97410.98
2022-12-14T18:36:02.309Z,97413.86
2022-12-14T18:38:35.033Z,97410.55
2022-12-14T18:41:08.479Z,97400.14
2022-12-14T18:43:44.038Z,97399.14
2022-12-14T18:46:17.784Z,97391.64
2022-12-14T18:48:49.643Z,97391.77
2022-12-14T18:51:23.868Z,97391.31
2022-12-14T18:53:58.259Z,97379.04
2022-12-14T18:56:31.467Z,97373.83
2022-12-14T18:59:03.323Z,97382.30
2022-12-14T19:01:35.309Z,97383.17
2022-12-14T19:04:08.191Z,97375.56
2022-12-14T19:06:44.807Z,97367.66
2022-12-14T19:09:17.399Z,97362.48
2022-12-14T19:11:49.132Z,97349.83
2022-12-14T19:14:21.122Z,97345.02
2022-12-14T19:16:52.970Z,97346.79
2022-12-14T19:19:28.927Z,97327.23
2022-12-14T19:22:04.884Z,97334.48
2022-12-14T19:24:36.847Z,97332.23
2022-12-14T19:27:09.432Z,97335.98
2022-12-14T19:29:41.316Z,97332.08
2022-12-14T19:32:13.573Z,97331.36
2022-12-14T19:34:45.938Z,97330.36
2022-12-14T19:37:17.926Z,97329.41
2022-12-14T19:39:50.770Z,97320.85
2022-12-14T19:42:23.292Z,97321.45
2022-12-14T19:44:55.213Z,97327.67
2022-12-14T19:47:28.199Z,97320.79
2022-12-14T19:50:03.650Z,97329.66
2022-12-14T19:52:36.611Z,97328.65
2022-12-14T19:55:09.632Z,97325.71
2022-12-14T19:57:42.376Z,97320.94
2022-12-14T20:00:15.475Z,97317.84
2022-12-14T20:02:49.875Z,97324.81
2022-12-14T20:05:22.436Z,97322.27
2022-12-14T20:07:54.259Z,97307.67
2022-12-14T20:10:26.168Z,97309.55
2022-12-14T20:12:58.038Z,97307.54
2022-12-14T20:15:29.789Z,97308.23
2022-12-14T20:18:04.724Z,97317.50
2022-12-14T20:20:36.587Z,97320.02
2022-12-14T20:23:08.483Z,97320.16
2022-12-14T20:25:40.322Z,97308.51
2022-12-14T20:28:12.314Z,97319.49
2022-12-14T20:30:48.235Z,97322.80
2022-12-14T20:33:22.835Z,97318.46
2022-12-14T20:35:56.961Z,97331.39
2022-12-14T20:38:29.173Z,97333.68
2022-12-14T20:41:07.069Z,97335.36
2022-12-14T20:43:40.164Z,97333.09
2022-12-14T20:46:33.229Z,97340.98
2022-12-14T20:49:09.043Z,97339.85
2022-12-14T20:51:42.529Z,97340.60
2022-12-14T20:54:14.138Z,97332.34
2022-12-14T20:56:49.169Z,97338.13
2022-12-14T20:59:22.243Z,97334.67
2022-12-14T21:01:56.463Z,97335.88
2022-12-14T21:04:29.094Z,97332.14
2022-12-14T21:07:00.909Z,97334.30
2022-12-14T21:09:32.525Z,97338.64
2022-12-14T21:12:23.232Z,97338.27
2022-12-14T21:14:57.287Z,97341.92
2022-12-14T21:17:30.964Z,97341.64
2022-12-14T21:20:02.650Z,97346.61
2022-12-14T21:22:35.436Z,97350.23
2022-12-14T21:25:08.368Z,97343.76
2022-12-14T21:27:40.842Z,97346.20
2022-12-14T21:30:14.377Z,97346.30
2022-12-14T21:32:46.031Z,97329.79
2022-12-14T21:35:20.017Z,97338.16
2022-12-14T21:37:51.864Z,97346.36
2022-12-14T21:40:41.125Z,97352.33
2022-12-14T21:43:13.546Z,97345.83
2022-12-14T21:45:46.211Z,97352.35
2022-12-14T21:48:17.969Z,97349.41
2022-12-14T21:50:49.748Z,97353.92
2022-12-14T21:53:21.401Z,97357.94
2022-12-14T21:56:13.926Z,97353.27
2022-12-14T21:58:51.252Z,97349.47
2022-12-14T22:01:24.626Z,97340.24
2022-12-14T22:03:56.376Z,97336.61
2022-12-14T22:06:28.255Z,97334.88
2022-12-14T22:09:02.103Z,97336.91
2022-12-14T22:11:33.933Z,97334.88
2022-12-14T22:14:05.839Z,97338.72
2022-12-14T22:16:37.630Z,97336.06
2022-12-14T22:19:14.233Z,97339.41
2022-12-14T22:21:46.846Z,97344.85
2022-12-14T22:24:22.346Z,97345.08
2022-12-14T22:26:55.872Z,97334.95
2022-12-14T22:29:26.818Z,97334.30
2022-12-14T22:31:58.433Z,97334.17
2022-12-14T22:34:30.096Z,97334.95
2022-12-14T22:37:01.979Z,97338.88
2022-12-14T22:39:33.662Z,97345.58
2022-12-14T22:42:05.636Z,97355.52
2022-12-14T22:44:37.726Z,97356.48
2022-12-14T22:47:09.336Z,97351.98
2022-12-14T22:49:41.002Z,97355.33
2022-12-14T22:52:12.631Z,97356.80
2022-12-14T22:54:44.504Z,97357.47
2022-12-14T22:57:22.456Z,97348.90
2022-12-14T22:59:58.853Z,97348.22
2022-12-14T23:02:31.361Z,97342.90
2022-12-14T23:05:06.748Z,97332.20
2022-12-14T23:07:36.833Z,97341.42
2022-12-14T23:10:27.790Z,97344.90
2022-12-14T23:13:17.379Z,97345.41
2022-12-14T23:16:06.701Z,97347.55
2022-12-14T23:18:55.807Z,97350.58
2022-12-14T23:21:45.010Z,97347.85
2022-12-14T23:24:34.627Z,97348.53
2022-12-14T23:27:24.723Z,97341.24
2022-12-14T23:30:14.353Z,97341.98
2022-12-14T23:33:03.913Z,97342.73
2022-12-14T23:35:53.136Z,97345.98
2022-12-14T23:38:42.538Z,97345.61
2022-12-14T23:41:31.809Z,97349.52
2022-12-14T23:44:21.250Z,97352.30
2022-12-14T23:47:10.735Z,97358.35
2022-12-14T23:49:59.936Z,97362.73
2022-12-14T23:52:49.502Z,97364.71
2022-12-14T23:55:39.172Z,97370.77
2022-12-14T23:58:28.450Z,97368.33
